sensor_id;sensor_type;location;lat;lon;timestamp;pressure;altitude;pressure_sealevel;temperature;humidity
33781;BME280;20097;50.832;19.100;2023-04-29T00:04:52;98077.31;;;6.83;82.59
33781;BME280;20097;50.832;19.100;2023-04-29T00:09:58;98078.56;;;6.71;84.70
33781;BME280;20097;50.832;19.100;2023-04-29T00:15:03;98076.53;;;6.57;86.46
33781;BME280;20097;50.832;19.100;2023-04-29T00:20:08;98074.06;;;6.48;90.69
33781;BME280;20097;50.832;19.100;2023-04-29T00:25:15;98076.78;;;6.46;88.99
33781;BME280;20097;50.832;19.100;2023-04-29T00:30:19;98057.97;;;6.44;88.25
33781;BME280;20097;50.832;19.100;2023-04-29T00:35:23;98052.28;;;6.41;89.92
33781;BME280;20097;50.832;19.100;2023-04-29T00:40:29;98054.75;;;6.42;89.47
33781;BME280;20097;50.832;19.100;2023-04-29T00:45:33;98043.25;;;6.45;89.63
33781;BME280;20097;50.832;19.100;2023-04-29T00:50:37;98048.13;;;6.48;89.73
33781;BME280;20097;50.832;19.100;2023-04-29T00:55:43;98037.25;;;6.44;90.01
33781;BME280;20097;50.832;19.100;2023-04-29T01:00:50;98043.41;;;6.43;90.21
33781;BME280;20097;50.832;19.100;2023-04-29T01:06:03;98051.69;;;6.47;89.47
33781;BME280;20097;50.832;19.100;2023-04-29T01:11:12;98047.16;;;6.49;90.58
33781;BME280;20097;50.832;19.100;2023-04-29T01:16:22;98049.75;;;6.49;92.76
33781;BME280;20097;50.832;19.100;2023-04-29T01:21:30;98046.25;;;6.58;92.17
33781;BME280;20097;50.832;19.100;2023-04-29T01:26:35;98046.13;;;6.67;91.47
33781;BME280;20097;50.832;19.100;2023-04-29T01:32:04;98044.38;;;6.76;90.96
33781;BME280;20097;50.832;19.100;2023-04-29T01:37:15;98035.66;;;6.85;91.90
33781;BME280;20097;50.832;19.100;2023-04-29T01:42:29;98039.75;;;6.95;90.70
33781;BME280;20097;50.832;19.100;2023-04-29T01:47:43;98034.59;;;7.04;89.50
33781;BME280;20097;50.832;19.100;2023-04-29T01:52:49;98024.06;;;7.13;90.16
33781;BME280;20097;50.832;19.100;2023-04-29T01:57:55;98019.72;;;7.22;88.75
33781;BME280;20097;50.832;19.100;2023-04-29T02:03:21;98024.44;;;7.34;88.33
33781;BME280;20097;50.832;19.100;2023-04-29T02:08:29;98019.41;;;7.41;88.58
33781;BME280;20097;50.832;19.100;2023-04-29T02:13:36;98010.66;;;7.50;86.41
33781;BME280;20097;50.832;19.100;2023-04-29T02:18:41;98011.47;;;7.58;85.55
33781;BME280;20097;50.832;19.100;2023-04-29T02:23:45;98015.72;;;7.67;85.36
33781;BME280;20097;50.832;19.100;2023-04-29T02:28:50;98012.97;;;7.69;83.82
33781;BME280;20097;50.832;19.100;2023-04-29T02:33:55;97998.66;;;7.73;83.61
33781;BME280;20097;50.832;19.100;2023-04-29T02:39:00;98000.28;;;7.74;80.99
33781;BME280;20097;50.832;19.100;2023-04-29T02:44:05;97997.38;;;7.77;83.58
33781;BME280;20097;50.832;19.100;2023-04-29T02:49:11;97993.13;;;7.76;83.01
33781;BME280;20097;50.832;19.100;2023-04-29T02:54:16;97990.06;;;7.80;83.70
33781;BME280;20097;50.832;19.100;2023-04-29T02:59:22;97993.44;;;7.81;83.93
33781;BME280;20097;50.832;19.100;2023-04-29T03:04:27;97989.25;;;7.80;84.94
33781;BME280;20097;50.832;19.100;2023-04-29T03:09:31;97980.94;;;7.84;84.52
33781;BME280;20097;50.832;19.100;2023-04-29T03:14:37;97975.91;;;7.91;84.23
33781;BME280;20097;50.832;19.100;2023-04-29T03:19:41;97971.03;;;7.96;83.68
33781;BME280;20097;50.832;19.100;2023-04-29T03:24:45;97975.72;;;8.00;83.21
33781;BME280;20097;50.832;19.100;2023-04-29T03:29:51;97977.84;;;8.05;83.50
33781;BME280;20097;50.832;19.100;2023-04-29T03:34:56;97979.97;;;8.01;85.78
33781;BME280;20097;50.832;19.100;2023-04-29T03:40:11;97966.16;;;8.01;86.21
33781;BME280;20097;50.832;19.100;2023-04-29T03:45:18;97969.06;;;8.06;86.69
33781;BME280;20097;50.832;19.100;2023-04-29T03:50:22;97963.06;;;8.05;87.83
33781;BME280;20097;50.832;19.100;2023-04-29T03:55:28;97968.22;;;8.13;87.19
33781;BME280;20097;50.832;19.100;2023-04-29T04:00:34;97967.09;;;8.16;86.47
33781;BME280;20097;50.832;19.100;2023-04-29T04:05:45;97967.41;;;8.21;85.70
33781;BME280;20097;50.832;19.100;2023-04-29T04:10:51;97968.56;;;8.26;87.25
33781;BME280;20097;50.832;19.100;2023-04-29T04:16:05;97967.41;;;8.37;88.44
33781;BME280;20097;50.832;19.100;2023-04-29T04:21:11;97961.88;;;8.40;90.60
33781;BME280;20097;50.832;19.100;2023-04-29T04:26:20;97969.81;;;8.47;94.52
33781;BME280;20097;50.832;19.100;2023-04-29T04:31:45;97972.72;;;8.52;96.93
33781;BME280;20097;50.832;19.100;2023-04-29T04:36:51;97959.38;;;8.55;99.92
33781;BME280;20097;50.832;19.100;2023-04-29T04:41:57;97960.34;;;8.54;100.00
33781;BME280;20097;50.832;19.100;2023-04-29T04:47:05;97961.13;;;8.62;99.52
33781;BME280;20097;50.832;19.100;2023-04-29T04:52:24;97967.56;;;8.74;99.16
33781;BME280;20097;50.832;19.100;2023-04-29T04:57:54;97967.19;;;8.85;97.70
33781;BME280;20097;50.832;19.100;2023-04-29T05:03:00;97962.59;;;8.95;99.32
33781;BME280;20097;50.832;19.100;2023-04-29T05:08:05;97962.84;;;9.08;95.61
33781;BME280;20097;50.832;19.100;2023-04-29T05:13:15;97957.41;;;9.18;93.92
33781;BME280;20097;50.832;19.100;2023-04-29T05:18:20;97957.41;;;9.40;93.91
33781;BME280;20097;50.832;19.100;2023-04-29T05:23:26;97963.28;;;9.57;91.85
33781;BME280;20097;50.832;19.100;2023-04-29T05:28:31;97970.81;;;9.74;90.97
33781;BME280;20097;50.832;19.100;2023-04-29T05:33:37;97964.09;;;9.95;89.13
33781;BME280;20097;50.832;19.100;2023-04-29T05:38:41;97954.84;;;10.07;89.56
33781;BME280;20097;50.832;19.100;2023-04-29T05:43:46;97962.66;;;10.29;86.23
33781;BME280;20097;50.832;19.100;2023-04-29T05:48:52;97970.38;;;10.52;90.34
33781;BME280;20097;50.832;19.100;2023-04-29T05:53:56;97969.91;;;10.63;89.57
33781;BME280;20097;50.832;19.100;2023-04-29T05:59:04;97972.78;;;10.68;95.36
33781;BME280;20097;50.832;19.100;2023-04-29T06:04:10;97973.75;;;10.67;92.71
33781;BME280;20097;50.832;19.100;2023-04-29T06:09:34;97971.63;;;10.56;97.67
33781;BME280;20097;50.832;19.100;2023-04-29T06:14:38;97967.59;;;10.53;95.97
33781;BME280;20097;50.832;19.100;2023-04-29T06:19:44;97969.19;;;10.54;95.26
33781;BME280;20097;50.832;19.100;2023-04-29T06:24:48;97973.25;;;10.57;96.25
33781;BME280;20097;50.832;19.100;2023-04-29T06:30:00;97966.91;;;10.80;94.97
33781;BME280;20097;50.832;19.100;2023-04-29T06:35:07;97971.47;;;10.93;95.56
33781;BME280;20097;50.832;19.100;2023-04-29T06:40:26;97965.69;;;11.12;96.83
33781;BME280;20097;50.832;19.100;2023-04-29T06:45:48;97976.53;;;11.30;93.15
33781;BME280;20097;50.832;19.100;2023-04-29T06:50:58;97967.75;;;11.38;97.64
33781;BME280;20097;50.832;19.100;2023-04-29T06:56:03;97969.81;;;11.42;100.00
33781;BME280;20097;50.832;19.100;2023-04-29T07:01:08;97971.69;;;11.69;100.00
33781;BME280;20097;50.832;19.100;2023-04-29T07:06:14;97955.13;;;12.11;100.00
33781;BME280;20097;50.832;19.100;2023-04-29T07:11:18;97957.78;;;12.52;99.94
33781;BME280;20097;50.832;19.100;2023-04-29T07:16:25;97963.94;;;12.72;97.72
33781;BME280;20097;50.832;19.100;2023-04-29T07:21:31;97963.25;;;12.57;99.52
33781;BME280;20097;50.832;19.100;2023-04-29T07:26:36;97962.25;;;12.64;100.00
33781;BME280;20097;50.832;19.100;2023-04-29T07:31:41;97965.66;;;12.58;100.00
33781;BME280;20097;50.832;19.100;2023-04-29T07:36:47;97969.88;;;12.59;100.00
33781;BME280;20097;50.832;19.100;2023-04-29T07:41:51;97963.88;;;12.24;100.00
33781;BME280;20097;50.832;19.100;2023-04-29T07:46:55;97972.56;;;12.31;100.00
33781;BME280;20097;50.832;19.100;2023-04-29T07:52:01;97964.00;;;12.16;100.00
33781;BME280;20097;50.832;19.100;2023-04-29T07:57:05;97967.16;;;12.05;100.00
33781;BME280;20097;50.832;19.100;2023-04-29T08:02:10;97971.28;;;12.21;100.00
33781;BME280;20097;50.832;19.100;2023-04-29T08:07:15;97971.81;;;12.37;100.00
33781;BME280;20097;50.832;19.100;2023-04-29T08:12:19;97977.25;;;12.42;100.00
33781;BME280;20097;50.832;19.100;2023-04-29T08:17:23;97978.53;;;12.53;100.00
33781;BME280;20097;50.832;19.100;2023-04-29T08:22:29;97982.34;;;12.57;100.00
33781;BME280;20097;50.832;19.100;2023-04-29T08:27:33;97979.38;;;12.60;100.00
33781;BME280;20097;50.832;19.100;2023-04-29T08:32:38;97970.09;;;12.58;100.00
33781;BME280;20097;50.832;19.100;2023-04-29T08:37:44;97974.94;;;12.61;100.00
33781;BME280;20097;50.832;19.100;2023-04-29T08:42:49;97974.53;;;12.64;100.00
33781;BME280;20097;50.832;19.100;2023-04-29T08:47:54;97970.75;;;12.73;100.00
33781;BME280;20097;50.832;19.100;2023-04-29T08:53:00;97972.66;;;12.92;100.00
33781;BME280;20097;50.832;19.100;2023-04-29T08:58:05;97968.50;;;13.04;100.00
33781;BME280;20097;50.832;19.100;2023-04-29T09:03:13;97967.31;;;13.19;100.00
33781;BME280;20097;50.832;19.100;2023-04-29T09:08:23;97967.16;;;13.40;100.00
33781;BME280;20097;50.832;19.100;2023-04-29T09:13:29;97958.72;;;13.58;100.00
33781;BME280;20097;50.832;19.100;2023-04-29T09:18:46;97960.97;;;13.74;100.00
33781;BME280;20097;50.832;19.100;2023-04-29T09:23:52;97963.19;;;13.90;100.00
33781;BME280;20097;50.832;19.100;2023-04-29T09:29:07;97962.78;;;14.13;99.42
33781;BME280;20097;50.832;19.100;2023-04-29T09:34:12;97958.13;;;14.15;100.00
33781;BME280;20097;50.832;19.100;2023-04-29T09:39:21;97967.00;;;13.74;100.00
33781;BME280;20097;50.832;19.100;2023-04-29T09:44:27;97970.25;;;13.76;100.00
33781;BME280;20097;50.832;19.100;2023-04-29T09:49:36;97965.41;;;14.06;100.00
33781;BME280;20097;50.832;19.100;2023-04-29T09:54:47;97967.78;;;14.53;100.00
33781;BME280;20097;50.832;19.100;2023-04-29T09:59:51;97966.78;;;14.98;93.33
33781;BME280;20097;50.832;19.100;2023-04-29T10:04:55;97968.56;;;15.49;90.86
33781;BME280;20097;50.832;19.100;2023-04-29T10:10:02;97969.69;;;15.66;88.94
33781;BME280;20097;50.832;19.100;2023-04-29T10:15:10;97957.59;;;16.07;87.81
33781;BME280;20097;50.832;19.100;2023-04-29T10:20:21;97962.44;;;16.53;80.37
33781;BME280;20097;50.832;19.100;2023-04-29T10:25:29;97956.19;;;17.31;77.56
33781;BME280;20097;50.832;19.100;2023-04-29T10:30:34;97957.63;;;17.98;71.26
33781;BME280;20097;50.832;19.100;2023-04-29T10:35:38;97951.09;;;18.24;68.88
33781;BME280;20097;50.832;19.100;2023-04-29T10:40:44;97949.50;;;18.46;69.02
33781;BME280;20097;50.832;19.100;2023-04-29T10:45:50;97950.28;;;18.23;68.87
33781;BME280;20097;50.832;19.100;2023-04-29T10:51:28;97948.00;;;17.92;68.43
33781;BME280;20097;50.832;19.100;2023-04-29T10:56:39;97950.84;;;18.02;68.18
33781;BME280;20097;50.832;19.100;2023-04-29T11:01:48;97943.13;;;17.66;71.07
33781;BME280;20097;50.832;19.100;2023-04-29T11:06:53;97942.09;;;17.67;70.03
33781;BME280;20097;50.832;19.100;2023-04-29T11:12:00;97942.22;;;17.42;72.74
33781;BME280;20097;50.832;19.100;2023-04-29T11:17:08;97939.75;;;17.47;71.61
33781;BME280;20097;50.832;19.100;2023-04-29T11:22:24;97934.78;;;17.39;75.16
33781;BME280;20097;50.832;19.100;2023-04-29T11:27:31;97932.81;;;17.05;76.74
33781;BME280;20097;50.832;19.100;2023-04-29T11:32:37;97937.38;;;16.98;77.86
33781;BME280;20097;50.832;19.100;2023-04-29T11:37:43;97940.03;;;16.62;77.91
33781;BME280;20097;50.832;19.100;2023-04-29T11:42:49;97932.53;;;15.80;78.25
33781;BME280;20097;50.832;19.100;2023-04-29T11:47:53;97945.19;;;15.65;80.21
33781;BME280;20097;50.832;19.100;2023-04-29T11:52:57;97944.16;;;15.66;81.18
33781;BME280;20097;50.832;19.100;2023-04-29T11:58:04;97933.19;;;15.94;82.29
33781;BME280;20097;50.832;19.100;2023-04-29T12:03:12;97938.47;;;16.36;78.46
33781;BME280;20097;50.832;19.100;2023-04-29T12:08:18;97932.94;;;16.63;78.82
33781;BME280;20097;50.832;19.100;2023-04-29T12:13:26;97931.97;;;16.39;78.22
33781;BME280;20097;50.832;19.100;2023-04-29T12:18:30;97938.72;;;16.10;82.25
33781;BME280;20097;50.832;19.100;2023-04-29T12:23:34;97942.56;;;16.32;79.15
33781;BME280;20097;50.832;19.100;2023-04-29T12:28:41;97937.38;;;16.44;79.11
33781;BME280;20097;50.832;19.100;2023-04-29T12:33:45;97943.41;;;16.69;77.14
33781;BME280;20097;50.832;19.100;2023-04-29T12:38:49;97935.16;;;16.95;77.37
33781;BME280;20097;50.832;19.100;2023-04-29T12:43:57;97934.38;;;17.24;76.22
33781;BME280;20097;50.832;19.100;2023-04-29T12:49:02;97928.00;;;17.32;74.44
33781;BME280;20097;50.832;19.100;2023-04-29T12:54:07;97935.09;;;17.61;74.75
33781;BME280;20097;50.832;19.100;2023-04-29T12:59:12;97931.56;;;17.78;71.26
33781;BME280;20097;50.832;19.100;2023-04-29T13:04:16;97936.25;;;17.76;71.48
33781;BME280;20097;50.832;19.100;2023-04-29T13:09:20;97926.81;;;17.57;73.36
33781;BME280;20097;50.832;19.100;2023-04-29T13:14:26;97925.25;;;17.38;74.88
33781;BME280;20097;50.832;19.100;2023-04-29T13:19:30;97922.13;;;17.30;76.93
33781;BME280;20097;50.832;19.100;2023-04-29T13:24:53;97926.22;;;16.96;77.86
33781;BME280;20097;50.832;19.100;2023-04-29T13:29:59;97922.81;;;16.78;81.38
33781;BME280;20097;50.832;19.100;2023-04-29T13:35:03;97925.59;;;17.01;78.91
33781;BME280;20097;50.832;19.100;2023-04-29T13:40:08;97923.03;;;16.94;77.80
33781;BME280;20097;50.832;19.100;2023-04-29T13:45:24;97929.94;;;17.77;76.59
33781;BME280;20097;50.832;19.100;2023-04-29T13:50:30;97924.69;;;18.47;72.70
33781;BME280;20097;50.832;19.100;2023-04-29T13:55:38;97935.91;;;19.05;71.94
33781;BME280;20097;50.832;19.100;2023-04-29T14:01:03;97926.84;;;18.27;70.75
33781;BME280;20097;50.832;19.100;2023-04-29T14:06:27;97925.16;;;18.44;72.09
33781;BME280;20097;50.832;19.100;2023-04-29T14:11:32;97922.63;;;18.03;73.34
33781;BME280;20097;50.832;19.100;2023-04-29T14:16:39;97922.03;;;17.66;76.48
33781;BME280;20097;50.832;19.100;2023-04-29T14:21:44;97923.25;;;17.63;77.20
33781;BME280;20097;50.832;19.100;2023-04-29T14:26:48;97930.78;;;18.24;75.56
33781;BME280;20097;50.832;19.100;2023-04-29T14:31:54;97922.03;;;18.01;75.63
33781;BME280;20097;50.832;19.100;2023-04-29T14:36:59;97919.72;;;17.81;75.92
33781;BME280;20097;50.832;19.100;2023-04-29T14:42:03;97920.28;;;17.71;76.46
33781;BME280;20097;50.832;19.100;2023-04-29T14:47:10;97915.78;;;17.49;76.86
33781;BME280;20097;50.832;19.100;2023-04-29T14:52:14;97912.59;;;17.58;79.14
33781;BME280;20097;50.832;19.100;2023-04-29T14:57:18;97912.47;;;18.97;71.53
33781;BME280;20097;50.832;19.100;2023-04-29T15:02:24;97923.31;;;20.01;63.82
33781;BME280;20097;50.832;19.100;2023-04-29T15:07:28;97926.44;;;20.15;62.75
33781;BME280;20097;50.832;19.100;2023-04-29T15:12:33;97913.13;;;20.70;61.15
33781;BME280;20097;50.832;19.100;2023-04-29T15:17:39;97945.94;;;21.28;56.34
33781;BME280;20097;50.832;19.100;2023-04-29T15:22:43;97935.84;;;21.04;55.75
33781;BME280;20097;50.832;19.100;2023-04-29T15:27:47;97922.16;;;19.48;60.74
33781;BME280;20097;50.832;19.100;2023-04-29T15:32:53;97912.75;;;18.33;68.09
33781;BME280;20097;50.832;19.100;2023-04-29T15:37:58;97914.56;;;18.09;69.44
33781;BME280;20097;50.832;19.100;2023-04-29T15:43:02;97919.38;;;17.89;70.74
33781;BME280;20097;50.832;19.100;2023-04-29T15:48:07;97930.59;;;17.61;73.60
33781;BME280;20097;50.832;19.100;2023-04-29T15:53:11;97924.63;;;17.25;71.79
33781;BME280;20097;50.832;19.100;2023-04-29T15:58:16;97921.13;;;16.83;78.70
33781;BME280;20097;50.832;19.100;2023-04-29T16:03:21;97925.94;;;17.04;75.37
33781;BME280;20097;50.832;19.100;2023-04-29T16:08:25;97924.50;;;16.72;77.71
33781;BME280;20097;50.832;19.100;2023-04-29T16:13:29;97926.13;;;16.91;76.51
33781;BME280;20097;50.832;19.100;2023-04-29T16:18:38;97923.13;;;16.88;76.13
33781;BME280;20097;50.832;19.100;2023-04-29T16:23:43;97926.84;;;16.62;76.12
33781;BME280;20097;50.832;19.100;2023-04-29T16:28:47;97916.44;;;16.31;79.75
33781;BME280;20097;50.832;19.100;2023-04-29T16:33:53;97922.44;;;15.95;76.67
33781;BME280;20097;50.832;19.100;2023-04-29T16:38:58;97922.09;;;15.67;76.61
33781;BME280;20097;50.832;19.100;2023-04-29T16:44:04;97918.28;;;15.63;81.25
33781;BME280;20097;50.832;19.100;2023-04-29T16:49:09;97923.25;;;15.47;81.80
33781;BME280;20097;50.832;19.100;2023-04-29T16:54:14;97917.91;;;15.29;83.27
33781;BME280;20097;50.832;19.100;2023-04-29T16:59:18;97923.56;;;14.94;86.50
33781;BME280;20097;50.832;19.100;2023-04-29T17:04:23;97926.69;;;14.65;88.70
33781;BME280;20097;50.832;19.100;2023-04-29T17:09:27;97931.00;;;14.53;91.44
33781;BME280;20097;50.832;19.100;2023-04-29T17:14:32;97941.16;;;14.37;95.05
33781;BME280;20097;50.832;19.100;2023-04-29T17:19:38;97942.78;;;14.25;97.98
33781;BME280;20097;50.832;19.100;2023-04-29T17:24:43;97941.97;;;14.11;100.00
33781;BME280;20097;50.832;19.100;2023-04-29T17:29:48;97947.44;;;13.97;100.00
33781;BME280;20097;50.832;19.100;2023-04-29T17:34:53;97953.47;;;13.84;100.00
33781;BME280;20097;50.832;19.100;2023-04-29T17:39:58;97955.31;;;13.84;100.00
33781;BME280;20097;50.832;19.100;2023-04-29T17:45:02;97956.50;;;13.74;100.00
33781;BME280;20097;50.832;19.100;2023-04-29T17:50:08;97958.53;;;13.72;100.00
33781;BME280;20097;50.832;19.100;2023-04-29T17:55:12;97966.41;;;13.66;100.00
33781;BME280;20097;50.832;19.100;2023-04-29T18:00:16;97953.06;;;13.41;100.00
33781;BME280;20097;50.832;19.100;2023-04-29T18:05:22;97967.56;;;13.31;100.00
33781;BME280;20097;50.832;19.100;2023-04-29T18:10:26;97968.97;;;13.27;100.00
33781;BME280;20097;50.832;19.100;2023-04-29T18:15:32;97974.16;;;13.07;100.00
33781;BME280;20097;50.832;19.100;2023-04-29T18:20:40;97984.97;;;12.98;100.00
33781;BME280;20097;50.832;19.100;2023-04-29T18:25:45;97988.94;;;12.81;100.00
33781;BME280;20097;50.832;19.100;2023-04-29T18:30:49;97994.16;;;12.81;100.00
33781;BME280;20097;50.832;19.100;2023-04-29T18:35:54;97999.81;;;12.78;100.00
33781;BME280;20097;50.832;19.100;2023-04-29T18:40:58;98006.84;;;12.77;100.00
33781;BME280;20097;50.832;19.100;2023-04-29T18:46:02;98018.09;;;12.71;100.00
33781;BME280;20097;50.832;19.100;2023-04-29T18:51:08;98011.81;;;12.66;100.00
33781;BME280;20097;50.832;19.100;2023-04-29T18:56:12;98021.47;;;12.59;100.00
33781;BME280;20097;50.832;19.100;2023-04-29T19:01:16;98016.38;;;12.57;100.00
33781;BME280;20097;50.832;19.100;2023-04-29T19:06:22;98017.00;;;12.59;100.00
33781;BME280;20097;50.832;19.100;2023-04-29T19:11:26;98016.22;;;12.59;100.00
33781;BME280;20097;50.832;19.100;2023-04-29T19:16:30;98021.47;;;12.59;100.00
33781;BME280;20097;50.832;19.100;2023-04-29T19:21:39;98029.28;;;12.52;100.00
33781;BME280;20097;50.832;19.100;2023-04-29T19:26:44;98028.19;;;12.40;100.00
33781;BME280;20097;50.832;19.100;2023-04-29T19:31:49;98033.69;;;12.24;100.00
33781;BME280;20097;50.832;19.100;2023-04-29T19:36:55;98037.69;;;12.20;100.00
33781;BME280;20097;50.832;19.100;2023-04-29T19:41:59;98039.13;;;12.22;100.00
33781;BME280;20097;50.832;19.100;2023-04-29T19:47:03;98045.78;;;12.25;100.00
33781;BME280;20097;50.832;19.100;2023-04-29T19:52:09;98053.44;;;12.26;100.00
33781;BME280;20097;50.832;19.100;2023-04-29T19:57:14;98054.31;;;12.33;100.00
33781;BME280;20097;50.832;19.100;2023-04-29T20:02:18;98057.50;;;12.29;100.00
33781;BME280;20097;50.832;19.100;2023-04-29T20:07:23;98063.53;;;12.29;100.00
33781;BME280;20097;50.832;19.100;2023-04-29T20:12:28;98063.66;;;12.21;100.00
33781;BME280;20097;50.832;19.100;2023-04-29T20:17:33;98062.00;;;12.14;100.00
33781;BME280;20097;50.832;19.100;2023-04-29T20:22:38;98076.44;;;12.10;100.00
33781;BME280;20097;50.832;19.100;2023-04-29T20:27:43;98063.31;;;12.03;100.00
33781;BME280;20097;50.832;19.100;2023-04-29T20:32:47;98058.88;;;12.04;100.00
33781;BME280;20097;50.832;19.100;2023-04-29T20:37:53;98061.31;;;12.05;100.00
33781;BME280;20097;50.832;19.100;2023-04-29T20:42:58;98061.25;;;11.99;100.00
33781;BME280;20097;50.832;19.100;2023-04-29T20:48:02;98065.25;;;11.95;100.00
33781;BME280;20097;50.832;19.100;2023-04-29T20:53:08;98068.25;;;11.92;100.00
33781;BME280;20097;50.832;19.100;2023-04-29T20:58:12;98070.44;;;11.88;100.00
33781;BME280;20097;50.832;19.100;2023-04-29T21:03:18;98080.50;;;11.91;100.00
33781;BME280;20097;50.832;19.100;2023-04-29T21:08:25;98086.91;;;11.89;100.00
33781;BME280;20097;50.832;19.100;2023-04-29T21:13:29;98091.97;;;11.90;100.00
33781;BME280;20097;50.832;19.100;2023-04-29T21:18:33;98086.75;;;11.90;100.00
33781;BME280;20097;50.832;19.100;2023-04-29T21:23:38;98097.56;;;11.87;100.00
33781;BME280;20097;50.832;19.100;2023-04-29T21:28:43;98086.91;;;11.89;100.00
33781;BME280;20097;50.832;19.100;2023-04-29T21:33:48;98084.94;;;11.91;100.00
33781;BME280;20097;50.832;19.100;2023-04-29T21:38:53;98089.47;;;11.82;100.00
33781;BME280;20097;50.832;19.100;2023-04-29T21:43:58;98096.91;;;11.79;100.00
33781;BME280;20097;50.832;19.100;2023-04-29T21:49:03;98100.47;;;11.78;100.00
33781;BME280;20097;50.832;19.100;2023-04-29T21:54:08;98098.88;;;11.77;100.00
33781;BME280;20097;50.832;19.100;2023-04-29T21:59:12;98102.06;;;11.72;100.00
33781;BME280;20097;50.832;19.100;2023-04-29T22:04:16;98097.88;;;11.78;100.00
33781;BME280;20097;50.832;19.100;2023-04-29T22:09:22;98103.03;;;11.71;100.00
33781;BME280;20097;50.832;19.100;2023-04-29T22:14:27;98107.28;;;11.72;100.00
33781;BME280;20097;50.832;19.100;2023-04-29T22:19:31;98104.84;;;11.71;100.00
33781;BME280;20097;50.832;19.100;2023-04-29T22:24:36;98099.63;;;11.71;100.00
33781;BME280;20097;50.832;19.100;2023-04-29T22:29:40;98102.25;;;11.71;100.00
33781;BME280;20097;50.832;19.100;2023-04-29T22:34:44;98099.38;;;11.66;100.00
33781;BME280;20097;50.832;19.100;2023-04-29T22:39:50;98106.59;;;11.64;100.00
33781;BME280;20097;50.832;19.100;2023-04-29T22:44:54;98112.34;;;11.59;100.00
33781;BME280;20097;50.832;19.100;2023-04-29T22:49:58;98112.34;;;11.59;100.00
33781;BME280;20097;50.832;19.100;2023-04-29T22:55:04;98114.31;;;11.57;100.00
33781;BME280;20097;50.832;19.100;2023-04-29T23:00:10;98113.59;;;11.63;100.00
33781;BME280;20097;50.832;19.100;2023-04-29T23:05:15;98115.66;;;11.68;100.00
33781;BME280;20097;50.832;19.100;2023-04-29T23:10:20;98121.06;;;11.66;100.00
33781;BME280;20097;50.832;19.100;2023-04-29T23:15:24;98114.50;;;11.56;100.00
33781;BME280;20097;50.832;19.100;2023-04-29T23:20:29;98126.13;;;11.53;100.00
33781;BME280;20097;50.832;19.100;2023-04-29T23:25:35;98130.28;;;11.48;100.00
33781;BME280;20097;50.832;19.100;2023-04-29T23:30:40;98126.06;;;11.32;100.00
33781;BME280;20097;50.832;19.100;2023-04-29T23:35:48;98133.72;;;11.19;100.00
33781;BME280;20097;50.832;19.100;2023-04-29T23:40:53;98141.66;;;11.11;100.00
33781;BME280;20097;50.832;19.100;2023-04-29T23:45:58;98146.44;;;10.93;100.00
33781;BME280;20097;50.832;19.100;2023-04-29T23:51:02;98138.69;;;10.85;100.00
33781;BME280;20097;50.832;19.100;2023-04-29T23:56:07;98146.22;;;10.80;100.00
